Time;durP1;ratioP1;P1;durP2;ratioP2;P2;SDS_P1;SDS_P2;PMS_P1;PMS_P2;Temp;Humidity;BMP_temperature;BMP_pressure;BME280_temperature;BME280_humidity;BME280_pressure;Samples;Min_cycle;Max_cycle;Signal;HPM_P1;HPM_P2
2021/06/07 00:02:00;;;;;;;5.50;1.93;;;15.50;99.90;;;;;;4999617;28;20231;-78
2021/06/07 00:04:28;;;;;;;2.33;1.63;;;15.30;99.90;;;;;;5009539;28;20230;-78
2021/06/07 00:06:57;;;;;;;2.70;1.80;;;15.20;99.90;;;;;;5010738;28;20220;-78
2021/06/07 00:09:25;;;;;;;1.93;1.70;;;15.30;99.90;;;;;;5018695;28;20199;-77
2021/06/07 00:11:57;;;;;;;3.40;2.17;;;15.20;99.90;;;;;;5013654;28;20229;-77
2021/06/07 00:14:31;;;;;;;3.00;2.10;;;15.20;99.90;;;;;;5015916;28;20247;-77
2021/06/07 00:16:58;;;;;;;4.77;2.40;;;15.30;99.90;;;;;;5008099;28;20605;-78
2021/06/07 00:19:28;;;;;;;3.77;1.70;;;15.30;99.90;;;;;;5010708;28;20239;-77
2021/06/07 00:21:56;;;;;;;3.87;2.53;;;15.10;99.90;;;;;;5005158;28;20232;-77
2021/06/07 00:24:24;;;;;;;2.73;1.80;;;15.20;99.90;;;;;;5009941;28;20201;-77
2021/06/07 00:26:52;;;;;;;2.23;2.03;;;15.10;99.90;;;;;;4992528;28;20205;-77
2021/06/07 00:29:19;;;;;;;3.70;2.20;;;15.10;99.90;;;;;;5010737;28;20194;-77
2021/06/07 00:31:46;;;;;;;2.60;2.40;;;15.20;99.90;;;;;;5013240;28;20295;-77
2021/06/07 00:34:14;;;;;;;2.30;2.10;;;15.20;99.90;;;;;;5011892;28;20306;-77
2021/06/07 00:36:41;;;;;;;3.37;2.00;;;15.20;99.90;;;;;;4991518;28;20257;-78
2021/06/07 00:39:11;;;;;;;3.20;2.17;;;15.20;99.90;;;;;;4995476;28;20617;-78
2021/06/07 00:41:39;;;;;;;4.33;2.43;;;15.00;99.90;;;;;;5010105;28;20294;-78
2021/06/07 00:44:12;;;;;;;2.80;2.13;;;15.00;99.90;;;;;;4994886;28;20247;-78
2021/06/07 00:46:41;;;;;;;3.60;2.37;;;14.90;99.90;;;;;;5004352;28;20248;-78
2021/06/07 00:49:10;;;;;;;5.47;2.57;;;14.80;99.90;;;;;;4988163;28;20224;-78
2021/06/07 00:51:38;;;;;;;3.00;2.13;;;14.80;99.90;;;;;;5013982;28;20217;-78
2021/06/07 00:54:07;;;;;;;5.57;2.70;;;14.80;99.90;;;;;;4995749;28;20308;-78
2021/06/07 00:56:34;;;;;;;2.60;2.37;;;14.80;99.90;;;;;;5030742;28;20207;-78
2021/06/07 00:59:02;;;;;;;3.27;2.33;;;14.80;99.90;;;;;;4994089;28;20234;-78
2021/06/07 01:01:29;;;;;;;5.27;2.37;;;14.70;99.90;;;;;;5011791;28;20212;-78
2021/06/07 01:03:59;;;;;;;2.83;2.40;;;14.80;99.90;;;;;;4994090;28;20609;-78
2021/06/07 01:06:27;;;;;;;2.63;2.20;;;14.80;99.90;;;;;;5013380;28;20223;-78
2021/06/07 01:08:54;;;;;;;3.43;2.20;;;14.80;99.90;;;;;;5003154;28;20748;-78
2021/06/07 01:11:22;;;;;;;5.50;2.50;;;14.70;99.90;;;;;;5013243;28;20201;-78
2021/06/07 01:13:50;;;;;;;4.33;2.40;;;14.80;99.90;;;;;;4996678;28;20627;-78
2021/06/07 01:16:19;;;;;;;4.37;2.83;;;14.80;99.90;;;;;;5011372;28;20659;-78
2021/06/07 01:18:47;;;;;;;3.07;2.30;;;14.80;99.90;;;;;;5012281;28;20216;-78
2021/06/07 01:21:18;;;;;;;3.47;2.20;;;14.80;99.90;;;;;;5008166;28;20216;-79
2021/06/07 01:23:47;;;;;;;2.97;2.40;;;14.80;99.90;;;;;;5009067;28;20209;-78
2021/06/07 01:26:17;;;;;;;2.90;2.53;;;14.80;99.90;;;;;;5006653;28;20201;-78
2021/06/07 01:28:46;;;;;;;4.63;2.70;;;14.80;99.90;;;;;;5032222;28;20225;-78
2021/06/07 01:31:13;;;;;;;4.13;2.60;;;14.80;99.90;;;;;;5001302;28;20233;-78
2021/06/07 01:33:47;;;;;;;3.30;2.73;;;14.80;99.90;;;;;;4996767;28;20345;-78
2021/06/07 01:36:14;;;;;;;4.90;2.70;;;14.60;99.90;;;;;;5023170;28;20254;-77
2021/06/07 01:38:41;;;;;;;5.90;2.83;;;14.60;99.90;;;;;;4998380;28;20222;-78
2021/06/07 01:41:11;;;;;;;3.90;2.60;;;14.60;99.90;;;;;;5010280;28;20209;-77
2021/06/07 01:43:39;;;;;;;5.23;3.03;;;14.70;99.90;;;;;;5009908;28;20215;-77
2021/06/07 01:46:06;;;;;;;2.93;2.50;;;14.60;99.90;;;;;;5009648;28;20289;-77
2021/06/07 01:48:34;;;;;;;3.87;2.33;;;14.60;99.90;;;;;;4988950;28;20194;-77
2021/06/07 01:51:03;;;;;;;4.33;2.57;;;14.40;99.90;;;;;;4998449;28;20213;-78
2021/06/07 01:53:30;;;;;;;5.43;2.70;;;14.40;99.90;;;;;;5010274;28;20304;-78
2021/06/07 01:56:01;;;;;;;4.67;2.40;;;14.40;99.90;;;;;;4991425;28;20207;-77
2021/06/07 01:58:29;;;;;;;3.27;2.33;;;14.40;99.90;;;;;;5010439;28;20197;-77
2021/06/07 02:01:06;;;;;;;5.83;2.63;;;14.50;99.90;;;;;;5012216;28;20201;-78
2021/06/07 02:03:33;;;;;;;3.33;2.60;;;14.30;99.90;;;;;;5013615;28;20197;-78
2021/06/07 02:06:04;;;;;;;3.17;2.53;;;14.40;99.90;;;;;;4994189;28;20625;-78
2021/06/07 02:08:31;;;;;;;4.53;2.90;;;14.40;99.90;;;;;;5016363;28;20346;-78
2021/06/07 02:11:05;;;;;;;4.37;2.67;;;14.50;99.90;;;;;;4993051;28;20232;-77
2021/06/07 02:13:32;;;;;;;3.43;2.43;;;14.60;99.90;;;;;;5010724;28;20232;-77
2021/06/07 02:16:14;;;;;;;3.97;2.30;;;14.60;99.90;;;;;;5007421;28;20597;-78
2021/06/07 02:18:42;;;;;;;3.50;2.70;;;14.50;99.90;;;;;;5024998;28;20643;-78
2021/06/07 02:21:10;;;;;;;3.17;2.77;;;14.40;99.90;;;;;;5020570;28;20275;-78
2021/06/07 02:23:38;;;;;;;3.87;2.50;;;14.40;99.90;;;;;;5009997;28;20590;-78
2021/06/07 02:26:09;;;;;;;3.37;2.33;;;14.60;99.90;;;;;;4995379;28;20196;-78
2021/06/07 02:28:37;;;;;;;4.40;3.13;;;14.80;99.90;;;;;;5010162;28;20524;-77
2021/06/07 02:31:05;;;;;;;4.40;2.47;;;14.80;99.90;;;;;;4996010;28;20234;-77
2021/06/07 02:33:32;;;;;;;3.73;2.50;;;14.80;99.90;;;;;;4999946;28;20266;-77
2021/06/07 02:35:59;;;;;;;5.80;2.60;;;14.90;99.90;;;;;;5010761;28;20284;-77
2021/06/07 02:38:26;;;;;;;3.03;2.57;;;14.80;99.90;;;;;;5006014;28;20206;-77
2021/06/07 02:40:53;;;;;;;4.30;2.60;;;14.80;99.90;;;;;;5013625;28;20559;-77
2021/06/07 02:43:21;;;;;;;4.43;2.50;;;14.70;99.90;;;;;;4996736;28;20228;-77
2021/06/07 02:45:48;;;;;;;4.00;2.50;;;14.70;99.90;;;;;;5014675;28;20306;-77
2021/06/07 02:48:15;;;;;;;4.90;2.57;;;14.80;99.90;;;;;;4991872;28;20213;-78
2021/06/07 02:50:45;;;;;;;6.73;2.70;;;14.60;99.90;;;;;;5009390;28;20231;-78
2021/06/07 02:53:13;;;;;;;4.93;2.70;;;14.70;99.90;;;;;;4995400;28;20197;-78
2021/06/07 02:55:45;;;;;;;4.17;2.70;;;14.70;99.90;;;;;;5028782;28;20214;-78
2021/06/07 02:58:12;;;;;;;2.97;2.60;;;14.80;99.90;;;;;;5011762;28;20547;-78
2021/06/07 03:00:44;;;;;;;7.07;3.97;;;14.70;99.90;;;;;;5001720;28;20205;-77
2021/06/07 03:03:12;;;;;;;5.50;3.03;;;14.70;99.90;;;;;;5018130;28;20213;-78
2021/06/07 03:05:41;;;;;;;3.23;2.60;;;14.60;99.90;;;;;;4995263;28;20626;-78
2021/06/07 03:08:11;;;;;;;5.70;3.10;;;14.50;99.90;;;;;;4987419;28;20279;-78
2021/06/07 03:10:39;;;;;;;7.20;3.00;;;14.50;99.90;;;;;;5012258;28;20316;-78
2021/06/07 03:13:06;;;;;;;3.93;2.87;;;14.30;99.90;;;;;;4998549;28;20358;-78
2021/06/07 03:15:33;;;;;;;5.17;2.83;;;14.50;99.90;;;;;;5001624;28;20235;-78
2021/06/07 03:18:04;;;;;;;4.60;2.57;;;14.60;99.90;;;;;;4997337;28;20268;-79
2021/06/07 03:20:33;;;;;;;3.37;2.40;;;14.40;99.90;;;;;;4996516;28;20274;-78
2021/06/07 03:23:03;;;;;;;10.63;4.20;;;14.40;99.90;;;;;;5015582;28;20264;-78
2021/06/07 03:25:34;;;;;;;5.63;2.70;;;14.40;99.90;;;;;;5013444;28;20215;-78
2021/06/07 03:28:01;;;;;;;4.93;2.60;;;14.30;99.90;;;;;;5021920;28;20210;-77
2021/06/07 03:30:28;;;;;;;3.90;2.80;;;14.20;99.90;;;;;;5014164;28;20279;-77
2021/06/07 03:32:55;;;;;;;3.13;2.70;;;14.10;99.90;;;;;;4984697;28;20251;-77
2021/06/07 03:35:23;;;;;;;6.23;3.20;;;14.10;99.90;;;;;;4994669;28;20216;-77
2021/06/07 03:37:50;;;;;;;5.93;2.67;;;14.10;99.90;;;;;;4996318;28;20223;-77
2021/06/07 03:40:29;;;;;;;6.07;3.87;;;14.10;99.90;;;;;;5007981;28;20265;-77
2021/06/07 03:42:56;;;;;;;3.53;2.47;;;14.30;99.90;;;;;;5013184;28;20546;-77
2021/06/07 03:45:24;;;;;;;5.77;2.87;;;14.20;99.90;;;;;;5010003;28;20209;-77
2021/06/07 03:47:51;;;;;;;4.27;2.87;;;14.20;99.90;;;;;;4993878;28;20201;-78
2021/06/07 03:50:21;;;;;;;5.97;2.83;;;14.20;99.90;;;;;;5024558;28;20201;-78
2021/06/07 03:52:48;;;;;;;5.37;3.40;;;14.10;99.90;;;;;;5011805;28;20263;-77
2021/06/07 03:55:18;;;;;;;4.60;3.20;;;14.10;99.90;;;;;;5011329;28;20209;-78
2021/06/07 03:57:45;;;;;;;6.53;2.73;;;14.20;99.90;;;;;;5017675;28;20204;-78
2021/06/07 04:00:16;;;;;;;4.13;2.87;;;14.00;99.90;;;;;;5014110;28;20221;-79
2021/06/07 04:02:44;;;;;;;3.30;2.73;;;14.10;99.90;;;;;;5011077;28;20213;-78
2021/06/07 04:05:13;;;;;;;3.67;2.80;;;14.10;99.90;;;;;;5000263;28;20221;-78
2021/06/07 04:07:41;;;;;;;3.23;2.70;;;14.10;99.90;;;;;;5014991;28;20193;-78
2021/06/07 04:10:13;;;;;;;5.60;2.87;;;14.00;99.90;;;;;;5010941;28;20715;-78
2021/06/07 04:12:40;;;;;;;6.30;3.53;;;14.10;99.90;;;;;;5030192;28;20648;-79
2021/06/07 04:15:08;;;;;;;4.83;3.07;;;14.00;99.90;;;;;;5010325;28;20205;-78
2021/06/07 04:17:37;;;;;;;3.83;3.00;;;13.90;99.90;;;;;;4990872;28;20256;-77
2021/06/07 04:20:06;;;;;;;7.00;3.03;;;13.90;99.90;;;;;;4991842;28;20201;-77
2021/06/07 04:22:34;;;;;;;4.20;2.90;;;14.00;99.90;;;;;;4993892;28;20208;-79
2021/06/07 04:25:01;;;;;;;5.03;2.87;;;14.10;99.90;;;;;;5024431;28;20223;-78
2021/06/07 04:27:28;;;;;;;3.40;2.90;;;14.10;99.90;;;;;;5008426;28;20248;-78
2021/06/07 04:29:55;;;;;;;3.10;2.27;;;14.00;99.90;;;;;;4992039;28;20569;-79
2021/06/07 04:32:22;;;;;;;3.70;2.87;;;14.00;99.90;;;;;;4994858;28;20274;-78
2021/06/07 04:34:49;;;;;;;4.20;3.13;;;14.00;99.90;;;;;;4990714;28;20220;-79
2021/06/07 04:37:16;;;;;;;6.23;2.77;;;14.00;99.90;;;;;;4996985;28;20532;-79
2021/06/07 04:39:43;;;;;;;5.73;3.13;;;14.10;99.90;;;;;;5011091;28;20248;-78
2021/06/07 04:42:10;;;;;;;3.73;2.90;;;14.10;99.90;;;;;;4993521;28;20216;-79
2021/06/07 04:44:37;;;;;;;4.00;2.47;;;14.10;99.90;;;;;;4995821;28;20258;-78
2021/06/07 04:47:04;;;;;;;3.93;2.63;;;14.20;99.90;;;;;;5010155;28;20290;-79
2021/06/07 04:49:31;;;;;;;5.07;2.47;;;14.20;99.90;;;;;;4990740;28;20256;-78
2021/06/07 04:51:58;;;;;;;5.20;2.60;;;14.30;99.90;;;;;;4992801;28;20217;-78
2021/06/07 04:54:25;;;;;;;5.60;2.40;;;14.40;99.90;;;;;;5010820;28;20315;-78
2021/06/07 04:56:52;;;;;;;3.27;2.80;;;14.50;99.90;;;;;;5007757;28;20212;-78
2021/06/07 04:59:18;;;;;;;3.77;2.83;;;14.40;99.90;;;;;;4993266;28;20235;-77
2021/06/07 05:01:45;;;;;;;3.83;2.63;;;14.50;99.90;;;;;;5006116;28;20200;-76
2021/06/07 05:04:12;;;;;;;4.17;2.80;;;14.60;99.90;;;;;;4992432;28;20204;-79
2021/06/07 05:06:39;;;;;;;4.97;2.20;;;14.70;99.90;;;;;;4999681;28;20213;-76
2021/06/07 05:09:06;;;;;;;2.73;2.50;;;14.80;99.90;;;;;;5008706;28;20201;-77
2021/06/07 05:11:33;;;;;;;6.20;2.67;;;14.80;99.90;;;;;;5009038;28;20550;-77
2021/06/07 05:14:00;;;;;;;3.77;2.80;;;14.70;1.00;;;;;;4990463;28;20211;-77
2021/06/07 05:16:27;;;;;;;7.00;2.63;;;14.70;99.90;;;;;;4990662;28;20377;-77
2021/06/07 05:18:54;;;;;;;6.67;2.43;;;14.90;1.00;;;;;;4989270;28;20653;-77
2021/06/07 05:21:21;;;;;;;4.13;3.27;;;15.10;1.00;;;;;;4989659;28;20209;-77
2021/06/07 05:23:48;;;;;;;3.50;2.80;;;14.90;1.00;;;;;;4993404;28;20209;-77
2021/06/07 05:26:15;;;;;;;3.30;2.53;;;15.00;10.50;;;;;;4991563;28;20278;-77
2021/06/07 05:28:42;;;;;;;5.00;3.00;;;14.80;1.00;;;;;;4992662;28;20199;-77
2021/06/07 05:31:09;;;;;;;4.37;2.60;;;15.00;99.90;;;;;;5010904;28;20729;-79
2021/06/07 05:33:35;;;;;;;2.97;2.67;;;15.00;99.90;;;;;;5004870;28;20214;-77
2021/06/07 05:36:03;;;;;;;4.53;2.67;;;15.10;99.90;;;;;;4993983;28;20207;-77
2021/06/07 05:38:30;;;;;;;4.87;2.90;;;15.30;1.00;;;;;;4990312;28;20583;-77
2021/06/07 05:40:58;;;;;;;3.67;2.40;;;15.50;1.00;;;;;;4995628;28;20206;-79
2021/06/07 05:43:25;;;;;;;2.70;2.47;;;15.60;99.90;;;;;;4997406;28;20692;-79
2021/06/07 05:45:53;;;;;;;6.40;2.70;;;15.70;1.00;;;;;;5003857;28;20200;-79
2021/06/07 05:48:20;;;;;;;3.20;2.30;;;15.90;99.90;;;;;;5020419;28;20221;-79
2021/06/07 05:50:50;;;;;;;4.30;2.57;;;15.90;99.90;;;;;;4999756;28;20356;-78
2021/06/07 05:53:18;;;;;;;3.10;2.33;;;15.80;99.90;;;;;;5007846;28;20210;-79
2021/06/07 05:55:45;;;;;;;3.07;2.40;;;15.70;99.90;;;;;;4991060;28;20201;-78
2021/06/07 05:58:17;;;;;;;3.33;2.30;;;15.70;99.90;;;;;;4995132;28;20217;-78
2021/06/07 06:00:46;;;;;;;3.50;1.97;;;15.90;99.90;;;;;;5003870;28;20258;-78
2021/06/07 06:03:13;;;;;;;4.77;2.07;;;16.10;99.90;;;;;;5013068;28;20572;-78
2021/06/07 06:05:40;;;;;;;7.50;2.50;;;16.20;99.90;;;;;;5001413;28;20195;-80
2021/06/07 06:08:08;;;;;;;4.37;2.50;;;16.40;99.90;;;;;;5013577;28;20212;-79
2021/06/07 06:10:37;;;;;;;5.47;2.40;;;16.20;99.00;;;;;;4991076;28;20204;-80
2021/06/07 06:13:09;;;;;;;2.87;2.17;;;16.10;99.90;;;;;;5010226;28;20479;-80
2021/06/07 06:15:36;;;;;;;2.53;2.33;;;16.20;99.90;;;;;;4996970;28;20226;-80
2021/06/07 06:18:04;;;;;;;3.97;2.53;;;16.10;98.20;;;;;;5001773;28;20217;-78
2021/06/07 06:20:32;;;;;;;3.10;1.90;;;16.00;99.50;;;;;;5004039;28;20215;-80
2021/06/07 06:23:00;;;;;;;2.10;1.80;;;16.20;32.80;;;;;;5001002;28;20582;-80
2021/06/07 06:25:28;;;;;;;2.00;1.80;;;16.30;99.90;;;;;;4997856;28;20266;-80
2021/06/07 06:27:57;;;;;;;4.07;2.00;;;16.30;99.90;;;;;;5000668;28;20252;-79
2021/06/07 06:30:26;;;;;;;2.03;1.83;;;16.50;61.10;;;;;;4997518;28;20195;-79
2021/06/07 06:32:56;;;;;;;3.87;1.80;;;16.80;1.00;;;;;;5008366;28;20238;-80
2021/06/07 06:35:24;;;;;;;2.73;1.70;;;16.80;1.00;;;;;;5004788;28;20306;-80
2021/06/07 06:37:51;;;;;;;2.03;1.73;;;16.80;1.00;;;;;;4988181;28;20214;-80
2021/06/07 06:40:24;;;;;;;4.93;2.10;;;17.00;1.00;;;;;;5018954;28;20209;-80
2021/06/07 06:42:53;;;;;;;6.23;2.50;;;17.10;1.00;;;;;;5034621;28;20220;-79
2021/06/07 06:45:21;;;;;;;3.90;1.87;;;17.10;1.00;;;;;;5019231;28;20209;-80
2021/06/07 06:47:57;;;;;;;4.33;2.50;;;17.20;1.00;;;;;;5003431;28;20204;-79
2021/06/07 06:50:26;;;;;;;2.60;1.60;;;17.40;1.00;;;;;;5020674;28;20204;-80
2021/06/07 06:52:53;;;;;;;3.47;1.83;;;17.70;1.00;;;;;;5020560;28;20689;-80
2021/06/07 06:55:20;;;;;;;2.17;1.80;;;17.50;1.00;;;;;;5004178;28;20208;-79
2021/06/07 06:57:47;;;;;;;2.57;1.90;;;17.50;1.00;;;;;;5008576;28;20890;-79
2021/06/07 07:00:15;;;;;;;2.00;1.80;;;17.70;1.00;;;;;;5020366;28;20671;-79
2021/06/07 07:02:42;;;;;;;3.27;1.80;;;17.60;1.00;;;;;;5022264;28;20292;-79
2021/06/07 07:05:09;;;;;;;2.20;2.00;;;17.90;1.00;;;;;;5018502;28;20637;-79
2021/06/07 07:07:36;;;;;;;2.40;2.20;;;18.40;1.00;;;;;;5021908;28;20325;-80
2021/06/07 07:10:05;;;;;;;3.83;2.27;;;18.20;1.00;;;;;;4996442;28;20253;-80
2021/06/07 07:12:32;;;;;;;3.77;1.77;;;18.50;1.00;;;;;;4997418;28;20208;-79
2021/06/07 07:15:00;;;;;;;3.67;2.30;;;18.90;1.00;;;;;;5019302;28;20208;-78
2021/06/07 07:17:28;;;;;;;2.73;2.20;;;18.80;1.00;;;;;;4989410;28;20648;-78
2021/06/07 07:19:55;;;;;;;3.77;1.93;;;18.60;1.00;;;;;;5008626;28;20216;-79
2021/06/07 07:22:23;;;;;;;2.20;2.00;;;18.40;1.00;;;;;;4988587;28;20201;-79
2021/06/07 07:24:50;;;;;;;3.03;2.00;;;18.60;1.00;;;;;;5005172;28;20201;-79
2021/06/07 07:27:19;;;;;;;3.43;2.47;;;19.00;99.90;;;;;;4984678;28;20253;-79
2021/06/07 07:29:47;;;;;;;3.90;2.43;;;18.70;99.90;;;;;;4979504;28;20208;-79
2021/06/07 07:32:14;;;;;;;3.53;2.45;;;18.70;99.90;;;;;;4994612;28;20489;-80
2021/06/07 07:34:45;;;;;;;4.33;2.03;;;18.60;1.00;;;;;;4984348;28;20311;-80
2021/06/07 07:37:12;;;;;;;2.50;2.10;;;19.70;99.90;;;;;;4994920;28;20208;-80
2021/06/07 07:39:39;;;;;;;4.17;1.97;;;20.60;99.90;;;;;;5002397;28;20217;-79
2021/06/07 07:42:07;;;;;;;2.70;2.00;;;20.30;99.90;;;;;;4980582;28;20200;-80
2021/06/07 07:44:35;;;;;;;2.20;2.00;;;20.30;99.90;;;;;;5000244;28;20212;-80
2021/06/07 07:47:05;;;;;;;4.77;1.60;;;20.80;99.90;;;;;;4981768;28;20209;-80
2021/06/07 07:49:34;;;;;;;3.77;1.47;;;22.50;99.90;;;;;;4985069;28;20263;-80
2021/06/07 07:52:03;;;;;;;1.97;1.70;;;22.90;99.90;;;;;;4977699;28;20226;-80
2021/06/07 07:54:31;;;;;;;3.17;1.90;;;22.20;99.90;;;;;;4997702;28;20213;-80
2021/06/07 07:56:59;;;;;;;2.73;1.80;;;21.80;99.90;;;;;;4996453;28;20209;-80
2021/06/07 07:59:28;;;;;;;2.60;1.70;;;22.50;99.90;;;;;;4996668;28;20198;-79
2021/06/07 08:01:54;;;;;;;1.93;1.37;;;23.00;99.90;;;;;;4980707;28;20205;-79
2021/06/07 08:04:22;;;;;;;1.83;1.53;;;23.40;99.90;;;;;;4996357;28;20218;-80
2021/06/07 08:06:48;;;;;;;4.10;1.23;;;24.20;99.90;;;;;;4990288;28;20319;-80
2021/06/07 08:09:15;;;;;;;1.87;1.10;;;24.30;99.90;;;;;;5009316;28;20280;-81
2021/06/07 08:11:42;;;;;;;1.80;1.57;;;24.30;99.90;;;;;;4980385;28;20225;-79
2021/06/07 08:14:09;;;;;;;1.87;1.30;;;23.70;99.90;;;;;;4995812;28;20588;-82
2021/06/07 08:16:36;;;;;;;2.50;1.27;;;24.00;99.90;;;;;;5002143;28;20387;-80
2021/06/07 08:19:03;;;;;;;1.63;1.53;;;23.90;99.90;;;;;;5004449;28;20346;-81
2021/06/07 08:21:30;;;;;;;2.13;1.70;;;24.00;99.90;;;;;;5023319;28;20245;-80
2021/06/07 08:23:57;;;;;;;2.47;1.80;;;23.90;99.90;;;;;;5004743;28;20324;-80
2021/06/07 08:26:24;;;;;;;2.67;1.77;;;25.10;99.90;;;;;;5001252;28;20291;-79
2021/06/07 08:28:51;;;;;;;2.60;1.70;;;24.00;99.90;;;;;;5010566;28;20206;-79
2021/06/07 08:31:18;;;;;;;2.43;1.63;;;24.30;99.90;;;;;;5031326;28;20230;-79
2021/06/07 08:33:45;;;;;;;3.53;1.70;;;24.50;99.90;;;;;;5015328;28;20211;-79
2021/06/07 08:36:12;;;;;;;2.30;1.70;;;24.10;99.90;;;;;;5013191;28;20204;-80
2021/06/07 08:38:41;;;;;;;2.30;1.77;;;25.60;99.90;;;;;;5014207;28;20207;-79
2021/06/07 08:41:09;;;;;;;2.30;2.10;;;25.70;99.90;;;;;;5010510;28;20261;-79
2021/06/07 08:43:36;;;;;;;3.10;2.63;;;25.30;99.90;;;;;;5012738;28;20223;-79
2021/06/07 08:46:20;;;;;;;2.70;1.60;;;25.00;99.90;;;;;;4995692;28;20234;-79
2021/06/07 08:48:47;;;;;;;3.73;2.23;;;25.00;99.90;;;;;;4997429;28;20191;-80
2021/06/07 08:51:16;;;;;;;3.30;2.53;;;25.10;99.90;;;;;;5016536;28;20222;-80
2021/06/07 08:53:43;;;;;;;4.47;2.07;;;25.20;99.90;;;;;;5001699;28;20668;-79
2021/06/07 08:56:10;;;;;;;3.63;2.70;;;25.70;99.90;;;;;;5000387;28;20224;-79
2021/06/07 08:58:37;;;;;;;4.90;2.60;;;25.70;99.90;;;;;;5003728;28;20215;-78
2021/06/07 09:01:04;;;;;;;3.20;2.60;;;26.10;99.90;;;;;;5017400;28;20694;-79
2021/06/07 09:03:33;;;;;;;3.83;2.57;;;24.20;99.90;;;;;;5016356;28;20295;-79
2021/06/07 09:06:03;;;;;;;2.87;2.10;;;23.30;99.90;;;;;;5002932;28;20261;-79
2021/06/07 09:08:36;;;;;;;3.17;2.47;;;25.00;99.90;;;;;;5015474;28;20215;-79
2021/06/07 09:11:15;;;;;;;2.43;2.17;;;24.80;99.90;;;;;;4997856;28;20597;-78
2021/06/07 09:13:43;;;;;;;2.63;2.10;;;25.10;99.90;;;;;;5014200;28;20242;-79
2021/06/07 09:16:12;;;;;;;2.63;2.43;;;25.60;99.90;;;;;;5003223;28;20229;-79
2021/06/07 09:18:44;;;;;;;4.23;2.27;;;26.60;99.90;;;;;;5012727;28;20208;-80
2021/06/07 09:21:18;;;;;;;3.13;2.10;;;26.90;99.90;;;;;;5012033;28;20209;-79
2021/06/07 09:23:48;;;;;;;3.03;2.17;;;26.90;99.90;;;;;;5011438;28;20622;-77
2021/06/07 09:26:32;;;;;;;2.63;2.17;;;25.20;99.90;;;;;;5012058;28;20208;-78
2021/06/07 09:29:06;;;;;;;2.80;2.60;;;25.30;99.90;;;;;;5027313;28;20198;-78
2021/06/07 09:31:34;;;;;;;3.33;2.90;;;24.30;99.90;;;;;;5009469;28;20286;-79
2021/06/07 09:34:08;;;;;;;2.70;2.50;;;25.20;99.90;;;;;;5021090;28;20225;-79
2021/06/07 09:36:44;;;;;;;3.10;2.00;;;25.30;99.90;;;;;;5015652;28;20338;-78
2021/06/07 09:39:25;;;;;;;3.30;2.03;;;26.20;99.90;;;;;;5015113;28;20675;-79
2021/06/07 09:42:02;;;;;;;2.47;2.27;;;25.40;99.90;;;;;;5016936;28;20197;-79
2021/06/07 09:44:54;;;;;;;2.13;1.80;;;25.20;99.90;;;;;;5018678;28;20297;-79
2021/06/07 09:47:31;;;;;;;2.13;1.90;;;24.20;99.90;;;;;;5023142;28;20215;-79
2021/06/07 09:50:09;;;;;;;2.57;2.00;;;24.70;99.90;;;;;;5015107;28;20212;-79
2021/06/07 09:52:45;;;;;;;4.07;2.30;;;25.20;99.90;;;;;;4998319;28;20198;-79
2021/06/07 09:55:22;;;;;;;2.63;2.23;;;24.90;99.90;;;;;;5034487;28;20208;-79
2021/06/07 09:57:58;;;;;;;3.17;2.20;;;24.50;99.90;;;;;;5024410;28;20246;-79
2021/06/07 10:00:44;;;;;;;6.43;2.70;;;24.90;99.90;;;;;;5022984;28;20218;-80
2021/06/07 10:03:23;;;;;;;2.53;2.07;;;25.10;99.90;;;;;;5006560;28;20287;-79
2021/06/07 10:05:51;;;;;;;3.40;2.40;;;25.90;99.90;;;;;;5016619;28;20246;-79
2021/06/07 10:08:22;;;;;;;4.43;1.97;;;26.30;99.90;;;;;;5018805;28;20633;-79
2021/06/07 10:10:49;;;;;;;4.17;2.17;;;25.70;99.90;;;;;;5018569;28;20205;-79
2021/06/07 10:13:17;;;;;;;3.80;1.93;;;25.80;99.90;;;;;;5021254;28;20265;-79
2021/06/07 10:15:49;;;;;;;2.93;1.70;;;25.80;99.90;;;;;;5019229;28;20209;-79
2021/06/07 10:18:19;;;;;;;3.47;1.70;;;25.50;99.90;;;;;;5005952;28;20303;-80
2021/06/07 10:20:52;;;;;;;1.90;1.70;;;26.40;99.90;;;;;;5019007;28;20240;-81
2021/06/07 10:23:25;;;;;;;2.20;1.77;;;25.40;99.90;;;;;;5014014;28;20263;-79
2021/06/07 10:25:54;;;;;;;2.50;1.53;;;25.10;99.90;;;;;;5018025;28;20199;-79
2021/06/07 10:28:30;;;;;;;1.70;1.60;;;24.80;99.90;;;;;;5003684;28;20201;-79
2021/06/07 10:31:07;;;;;;;1.80;1.70;;;24.80;99.90;;;;;;5018503;28;20220;-78
2021/06/07 10:33:37;;;;;;;1.73;1.63;;;25.00;99.90;;;;;;5022794;28;20290;-80
2021/06/07 10:36:23;;;;;;;3.13;1.93;;;25.20;99.90;;;;;;5017091;28;20202;-78
2021/06/07 10:38:52;;;;;;;6.27;2.13;;;25.50;99.90;;;;;;5015084;28;20255;-78
2021/06/07 10:41:27;;;;;;;2.67;1.43;;;25.50;99.90;;;;;;5019429;28;20235;-79
2021/06/07 10:43:59;;;;;;;3.77;2.37;;;25.60;99.90;;;;;;5035194;28;20280;-79
2021/06/07 10:46:29;;;;;;;5.53;1.80;;;24.50;99.90;;;;;;5037310;28;20219;-80
2021/06/07 10:48:57;;;;;;;3.17;1.70;;;25.00;99.90;;;;;;5033231;28;20211;-78
2021/06/07 10:51:31;;;;;;;1.47;1.10;;;24.70;99.90;;;;;;5018103;28;20423;-78
2021/06/07 10:54:33;;;;;;;3.67;1.63;;;24.60;99.90;;;;;;5036799;28;20270;-79
2021/06/07 10:57:26;;;;;;;1.87;1.50;;;25.50;99.90;;;;;;5028085;28;20719;-78
2021/06/07 10:59:56;;;;;;;2.60;1.73;;;25.60;99.90;;;;;;5018705;28;20643;-79
2021/06/07 11:02:25;;;;;;;2.57;1.40;;;25.90;99.90;;;;;;4997604;28;20212;-78
2021/06/07 11:05:15;;;;;;;2.17;1.60;;;25.90;99.90;;;;;;5015711;28;20283;-78
2021/06/07 11:07:45;;;;;;;1.77;1.50;;;25.60;99.90;;;;;;5028687;28;20196;-78
2021/06/07 11:10:40;;;;;;;1.50;1.30;;;26.30;99.90;;;;;;5005805;28;20204;-78
2021/06/07 11:13:30;;;;;;;1.87;1.13;;;26.00;99.90;;;;;;5041459;28;20204;-78
2021/06/07 11:16:02;;;;;;;1.53;1.30;;;25.60;99.90;;;;;;5016945;28;20663;-78
2021/06/07 11:18:37;;;;;;;5.03;1.90;;;26.10;99.90;;;;;;5004633;28;20650;-78
2021/06/07 11:21:08;;;;;;;5.87;1.37;;;25.10;99.90;;;;;;4981604;28;20201;-79
2021/06/07 11:23:44;;;;;;;2.40;1.47;;;27.50;99.90;;;;;;5011444;28;20251;-77
2021/06/07 11:26:17;;;;;;;3.13;0.80;;;26.90;99.90;;;;;;4995492;28;20212;-78
2021/06/07 11:28:48;;;;;;;2.43;1.00;;;26.80;99.90;;;;;;4988083;28;20213;-78
2021/06/07 11:31:18;;;;;;;1.40;1.30;;;27.80;99.90;;;;;;4995684;28;20291;-78
2021/06/07 11:33:53;;;;;;;2.07;1.10;;;27.60;99.90;;;;;;4997472;28;20284;-78
2021/06/07 11:36:48;;;;;;;1.90;1.10;;;27.80;99.90;;;;;;5010596;28;20215;-78
2021/06/07 11:39:48;;;;;;;1.57;1.47;;;27.50;99.90;;;;;;5000773;28;20211;-78
2021/06/07 11:42:21;;;;;;;2.13;1.33;;;28.20;99.90;;;;;;5001595;28;20664;-78
2021/06/07 11:45:03;;;;;;;2.70;1.03;;;27.20;99.90;;;;;;5003962;28;20212;-78
2021/06/07 11:47:36;;;;;;;1.77;1.30;;;28.10;99.90;;;;;;5003430;28;20757;-78
2021/06/07 11:50:26;;;;;;;2.67;1.50;;;28.10;99.90;;;;;;5001064;28;20211;-78
2021/06/07 11:52:54;;;;;;;2.50;1.23;;;27.70;99.90;;;;;;5000257;28;20238;-78
2021/06/07 11:55:28;;;;;;;2.37;1.33;;;28.20;99.90;;;;;;5003005;28;20340;-78
2021/06/07 11:58:04;;;;;;;1.63;1.10;;;28.30;99.90;;;;;;5021145;28;20212;-78
2021/06/07 12:00:45;;;;;;;2.10;1.17;;;28.00;99.90;;;;;;5002893;28;20224;-78
2021/06/07 12:03:16;;;;;;;2.23;1.50;;;28.30;99.90;;;;;;5014415;28;20222;-77
2021/06/07 12:05:44;;;;;;;2.30;1.33;;;27.80;99.90;;;;;;5009101;28;20240;-77
2021/06/07 12:08:14;;;;;;;1.60;1.40;;;27.90;99.90;;;;;;4995745;28;20308;-78
2021/06/07 12:10:44;;;;;;;3.07;1.30;;;28.30;99.90;;;;;;4990047;28;20193;-78
2021/06/07 12:13:16;;;;;;;2.13;1.17;;;28.40;99.90;;;;;;4986341;28;20209;-78
2021/06/07 12:15:48;;;;;;;3.30;1.50;;;28.20;99.90;;;;;;5012540;28;20305;-77
2021/06/07 12:18:31;;;;;;;2.57;1.50;;;27.50;99.90;;;;;;5021798;28;20255;-76
2021/06/07 12:21:05;;;;;;;1.20;1.10;;;27.00;99.90;;;;;;5008838;28;20212;-77
2021/06/07 12:23:39;;;;;;;1.33;1.10;;;28.10;99.90;;;;;;5033577;28;20199;-77
2021/06/07 12:29:23;;;;;;;2.40;1.50;;;28.90;99.90;;;;;;5022175;28;20193;-78
2021/06/07 12:32:11;;;;;;;2.17;1.67;;;28.40;99.90;;;;;;5025253;28;20248;-78
2021/06/07 12:34:58;;;;;;;2.73;1.50;;;28.30;99.90;;;;;;5025105;28;20208;-78
2021/06/07 12:37:33;;;;;;;1.70;1.07;;;28.50;99.90;;;;;;5007769;28;20277;-77
2021/06/07 12:40:38;;;;;;;2.03;1.30;;;28.60;99.90;;;;;;5030679;28;20203;-78
2021/06/07 12:43:08;;;;;;;1.80;1.13;;;29.00;99.90;;;;;;4992515;28;20211;-77
2021/06/07 12:45:39;;;;;;;1.30;1.20;;;28.00;99.90;;;;;;5026154;28;20307;-78
2021/06/07 12:48:18;;;;;;;2.50;1.40;;;28.20;99.90;;;;;;5017677;28;20201;-77
2021/06/07 12:50:48;;;;;;;1.40;1.23;;;27.50;99.90;;;;;;5022944;28;20629;-77
2021/06/07 12:53:16;;;;;;;3.70;1.70;;;28.10;99.90;;;;;;5013711;28;20196;-78
2021/06/07 12:55:45;;;;;;;3.93;1.30;;;28.00;99.90;;;;;;4999324;28;20557;-78
2021/06/07 12:58:26;;;;;;;1.97;1.40;;;28.30;99.90;;;;;;4997905;28;20212;-77
2021/06/07 13:01:01;;;;;;;2.57;1.20;;;27.60;99.90;;;;;;5025996;28;20207;-77
2021/06/07 13:03:36;;;;;;;3.73;1.50;;;27.50;99.90;;;;;;4996061;28;20300;-77
2021/06/07 13:06:14;;;;;;;1.67;1.57;;;28.20;99.90;;;;;;4983122;28;20219;-78
2021/06/07 13:08:51;;;;;;;3.80;1.67;;;27.20;99.90;;;;;;5026547;28;20201;-78